createdAt,value
2019-04-28T00:01:57.454Z,14.47
2019-04-28T00:04:27.987Z,16.90
2019-04-28T00:06:58.371Z,16.33
2019-04-28T00:09:29.124Z,12.93
2019-04-28T00:12:01.579Z,14.73
2019-04-28T00:14:31.703Z,13.27
2019-04-28T00:17:01.081Z,14.17
2019-04-28T00:19:31.273Z,14.27
2019-04-28T00:22:07.327Z,17.07
2019-04-28T00:24:58.390Z,15.93
2019-04-28T00:27:28.814Z,13.80
2019-04-28T00:29:59.354Z,15.93
2019-04-28T00:32:30.476Z,13.67
2019-04-28T00:35:02.161Z,14.57
2019-04-28T00:37:33.926Z,13.90
2019-04-28T00:40:04.930Z,13.57
2019-04-28T00:42:35.509Z,13.60
2019-04-28T00:45:07.687Z,15.03
2019-04-28T00:47:38.157Z,14.83
2019-04-28T00:50:09.098Z,17.73
2019-04-28T00:52:39.512Z,18.80
2019-04-28T00:55:11.037Z,16.87
2019-04-28T00:57:40.985Z,17.10
2019-04-28T01:00:11.618Z,16.83
2019-04-28T01:02:43.091Z,16.17
2019-04-28T01:05:13.759Z,16.23
2019-04-28T01:07:44.228Z,15.40
2019-04-28T01:10:15.009Z,17.77
2019-04-28T01:12:46.760Z,15.50
2019-04-28T01:15:23.659Z,16.73
2019-04-28T01:18:02.899Z,17.10
2019-04-28T01:20:33.473Z,17.03
2019-04-28T01:23:04.666Z,17.93
2019-04-28T01:25:35.222Z,16.17
2019-04-28T01:28:05.769Z,17.33
2019-04-28T01:30:41.101Z,16.43
2019-04-28T01:33:17.532Z,16.57
2019-04-28T01:35:49.376Z,15.97
2019-04-28T01:38:20.469Z,16.60
2019-04-28T01:40:50.099Z,17.73
2019-04-28T01:43:20.470Z,17.60
2019-04-28T01:45:50.894Z,17.17
2019-04-28T01:48:21.288Z,17.87
2019-04-28T01:50:51.873Z,19.40
2019-04-28T01:53:22.177Z,17.97
2019-04-28T01:55:52.556Z,16.27
2019-04-28T01:58:22.896Z,17.97
2019-04-28T02:00:53.479Z,16.43
2019-04-28T02:03:23.954Z,17.53
2019-04-28T02:05:54.357Z,19.80
2019-04-28T02:08:24.793Z,20.97
2019-04-28T02:10:55.399Z,18.40
2019-04-28T02:13:25.873Z,20.67
2019-04-28T02:15:56.374Z,21.37
2019-04-28T02:18:26.852Z,20.93
2019-04-28T02:21:02.399Z,19.70
2019-04-28T02:23:33.217Z,17.40
2019-04-28T02:26:03.559Z,20.30
2019-04-28T02:28:33.953Z,20.17
2019-04-28T02:31:35.606Z,18.03
2019-04-28T02:34:06.034Z,19.57
2019-04-28T02:36:36.447Z,15.27
2019-04-28T02:39:07.229Z,19.43
2019-04-28T02:41:37.657Z,16.87
2019-04-28T02:44:10.287Z,15.90
2019-04-28T02:46:40.767Z,15.53
2019-04-28T02:49:10.214Z,16.23
2019-04-28T02:51:43.973Z,14.50
2019-04-28T02:54:15.017Z,15.23
2019-04-28T02:56:45.320Z,15.60
2019-04-28T02:59:15.631Z,12.50
2019-04-28T03:01:46.176Z,12.23
2019-04-28T03:04:16.686Z,10.87
2019-04-28T03:06:47.094Z,12.07
2019-04-28T03:09:20.025Z,10.33
2019-04-28T03:11:48.269Z,10.13
2019-04-28T03:14:20.857Z,10.30
2019-04-28T03:16:51.027Z,9.83
2019-04-28T03:19:21.237Z,8.73
2019-04-28T03:21:51.387Z,11.20
2019-04-28T03:24:22.302Z,10.40
2019-04-28T03:26:56.905Z,9.60
2019-04-28T03:29:34.267Z,8.53
2019-04-28T03:32:28.431Z,6.63
2019-04-28T03:34:43.897Z,6.67
2019-04-28T03:37:12.533Z,8.00
2019-04-28T03:39:42.834Z,6.37
2019-04-28T03:42:12.623Z,6.70
2019-04-28T03:44:42.865Z,6.07
2019-04-28T03:47:13.198Z,5.40
2019-04-28T03:49:43.638Z,5.40
2019-04-28T03:52:14.034Z,5.70
2019-04-28T03:54:44.470Z,4.97
2019-04-28T03:57:14.837Z,6.13
2019-04-28T03:59:45.350Z,5.30
2019-04-28T04:02:15.749Z,4.93
2019-04-28T04:04:46.209Z,5.50
2019-04-28T04:07:16.758Z,6.30
2019-04-28T04:09:53.100Z,4.93
2019-04-28T04:12:30.947Z,6.00
2019-04-28T04:15:07.063Z,5.40
2019-04-28T04:17:41.992Z,5.33
2019-04-28T04:20:15.998Z,5.93
2019-04-28T04:22:46.532Z,5.93
2019-04-28T04:25:17.135Z,5.93
2019-04-28T04:27:50.072Z,5.27
2019-04-28T04:30:20.624Z,6.53
2019-04-28T04:32:50.639Z,5.10
2019-04-28T04:35:21.450Z,5.10
2019-04-28T04:37:50.398Z,4.67
2019-04-28T04:40:21.019Z,5.37
2019-04-28T04:42:50.745Z,5.93
2019-04-28T04:45:21.303Z,4.70
2019-04-28T04:47:51.630Z,4.33
2019-04-28T04:50:21.982Z,4.30
2019-04-28T04:52:52.665Z,5.10
2019-04-28T04:55:23.062Z,4.83
2019-04-28T04:57:53.469Z,4.30
2019-04-28T05:00:28.047Z,4.57
2019-04-28T05:04:22.750Z,4.80
2019-04-28T05:06:53.179Z,4.10
2019-04-28T05:09:23.509Z,4.30
2019-04-28T05:11:53.994Z,4.60
2019-04-28T05:14:24.508Z,3.80
2019-04-28T05:16:55.788Z,3.90
2019-04-28T05:19:26.302Z,3.60
2019-04-28T05:21:56.889Z,3.60
2019-04-28T05:24:46.361Z,3.63
2019-04-28T05:27:17.348Z,3.90
2019-04-28T05:29:47.033Z,3.87
2019-04-28T05:32:17.473Z,3.50
2019-04-28T05:34:50.227Z,3.80
2019-04-28T05:37:19.339Z,3.57
2019-04-28T05:39:50.008Z,3.80
2019-04-28T05:42:19.925Z,3.53
2019-04-28T05:44:50.183Z,3.90
2019-04-28T05:47:20.682Z,5.37
2019-04-28T05:50:00.221Z,3.87
2019-04-28T05:52:40.217Z,3.77
2019-04-28T05:55:13.494Z,3.60
2019-04-28T05:57:50.041Z,4.30
2019-04-28T06:00:55.076Z,5.83
2019-04-28T06:03:25.601Z,3.97
2019-04-28T06:05:57.129Z,3.57
2019-04-28T06:08:38.458Z,4.93
2019-04-28T06:11:13.981Z,3.83
2019-04-28T06:13:44.342Z,4.23
2019-04-28T06:16:14.845Z,3.63
2019-04-28T06:18:45.180Z,4.13
2019-04-28T06:21:15.637Z,4.50
2019-04-28T06:23:46.013Z,4.00
2019-04-28T06:26:16.549Z,3.93
2019-04-28T06:28:47.361Z,4.00
2019-04-28T06:31:17.925Z,3.50
2019-04-28T06:33:48.407Z,3.70
2019-04-28T06:36:18.963Z,4.03
2019-04-28T06:38:49.266Z,3.80
2019-04-28T06:41:19.648Z,3.20
2019-04-28T06:43:50.015Z,3.87
2019-04-28T06:46:19.826Z,3.70
2019-04-28T06:48:50.246Z,3.63
2019-04-28T06:51:20.706Z,2.77
2019-04-28T06:53:51.027Z,3.43
2019-04-28T06:56:21.512Z,4.70
2019-04-28T06:58:58.804Z,3.53
2019-04-28T07:01:22.822Z,3.30
2019-04-28T07:03:53.316Z,3.70
2019-04-28T07:06:23.673Z,3.57
2019-04-28T07:08:54.089Z,3.73
2019-04-28T07:11:24.528Z,3.70
2019-04-28T07:13:54.819Z,3.50
2019-04-28T07:16:25.195Z,3.40
2019-04-28T07:18:55.598Z,3.57
2019-04-28T07:21:31.152Z,3.53
2019-04-28T07:24:02.002Z,3.40
2019-04-28T07:26:32.556Z,3.07
2019-04-28T07:29:03.105Z,3.90
2019-04-28T07:31:33.492Z,3.40
2019-04-28T07:34:03.964Z,4.33
2019-04-28T07:36:34.565Z,3.97
2019-04-28T07:39:05.733Z,3.50
2019-04-28T07:41:36.357Z,5.60
2019-04-28T07:44:06.485Z,3.90
2019-04-28T07:46:36.852Z,4.17
2019-04-28T07:49:07.210Z,3.90
2019-04-28T07:51:56.947Z,5.23
2019-04-28T07:54:30.454Z,3.43
2019-04-28T07:57:00.921Z,4.53
2019-04-28T07:59:31.364Z,4.13
2019-04-28T08:02:01.853Z,3.50
2019-04-28T08:04:31.981Z,3.60
2019-04-28T08:07:02.426Z,4.00
2019-04-28T08:09:32.854Z,3.40
2019-04-28T08:12:03.025Z,3.73
2019-04-28T08:14:33.452Z,4.47
2019-04-28T08:17:03.878Z,3.23
2019-04-28T08:19:33.996Z,4.00
2019-04-28T08:22:04.254Z,4.90
2019-04-28T08:24:34.369Z,5.10
2019-04-28T08:27:04.578Z,3.67
2019-04-28T08:29:35.073Z,3.67
2019-04-28T08:32:16.421Z,3.30
2019-04-28T08:34:46.549Z,6.60
2019-04-28T08:37:16.973Z,2.90
2019-04-28T08:39:47.052Z,3.80
2019-04-28T08:42:17.355Z,2.90
2019-04-28T08:44:47.718Z,4.73
2019-04-28T08:47:18.003Z,6.00
2019-04-28T08:49:48.328Z,2.50
2019-04-28T08:52:18.738Z,2.80
2019-04-28T08:58:22.341Z,2.20
2019-04-28T09:00:52.434Z,4.93
2019-04-28T09:03:22.588Z,2.07
2019-04-28T09:05:53.152Z,2.00
2019-04-28T09:08:23.715Z,1.83
2019-04-28T09:10:53.968Z,3.83
2019-04-28T09:13:24.541Z,2.10
2019-04-28T09:15:55.018Z,2.10
2019-04-28T09:18:25.511Z,2.77
2019-04-28T09:20:55.896Z,1.90
2019-04-28T09:23:26.444Z,2.77
2019-04-28T09:25:56.862Z,1.93
2019-04-28T09:28:27.154Z,7.03
2019-04-28T09:30:57.871Z,3.10
2019-04-28T09:33:28.759Z,2.50
2019-04-28T09:35:59.051Z,2.47
2019-04-28T09:38:29.553Z,2.10
2019-04-28T09:40:59.727Z,5.60
2019-04-28T09:43:34.900Z,4.57
2019-04-28T09:46:09.517Z,2.50
2019-04-28T09:48:39.814Z,3.93
2019-04-28T09:51:10.221Z,3.50
2019-04-28T09:53:40.354Z,5.17
2019-04-28T09:56:10.553Z,4.50
2019-04-28T09:58:40.993Z,3.50
2019-04-28T10:01:11.519Z,3.70
2019-04-28T10:03:41.758Z,4.13
2019-04-28T10:06:12.018Z,3.03
2019-04-28T10:08:42.307Z,3.53
2019-04-28T10:11:12.833Z,3.20
2019-04-28T10:13:44.093Z,5.00
2019-04-28T10:16:14.510Z,5.40
2019-04-28T10:18:44.946Z,4.00
2019-04-28T10:21:15.433Z,3.50
2019-04-28T10:23:46.038Z,4.03
2019-04-28T10:26:16.481Z,4.17
2019-04-28T10:28:46.970Z,4.00
2019-04-28T10:31:17.151Z,4.37
2019-04-28T10:33:48.930Z,4.63
2019-04-28T10:36:19.322Z,3.03
2019-04-28T10:38:50.039Z,2.90
2019-04-28T10:41:28.294Z,3.40
2019-04-28T10:43:59.106Z,4.03
2019-04-28T10:46:29.530Z,4.10
2019-04-28T10:49:00.317Z,3.80
2019-04-28T10:51:30.687Z,4.10
2019-04-28T10:54:01.158Z,4.00
2019-04-28T10:56:31.539Z,4.43
2019-04-28T10:59:02.013Z,3.90
2019-04-28T11:01:32.134Z,3.07
2019-04-28T11:04:04.692Z,7.50
2019-04-28T11:06:34.769Z,4.47
2019-04-28T11:09:30.085Z,3.43
2019-04-28T11:11:49.828Z,3.63
2019-04-28T11:14:20.382Z,4.67
2019-04-28T11:16:50.853Z,3.30
2019-04-28T11:19:21.328Z,3.63
2019-04-28T11:21:51.777Z,3.60
2019-04-28T11:24:22.262Z,3.67
2019-04-28T11:26:52.664Z,6.23
2019-04-28T11:29:23.617Z,4.50
2019-04-28T11:31:54.096Z,4.40
2019-04-28T11:34:30.669Z,4.67
2019-04-28T11:37:01.151Z,4.77
2019-04-28T11:39:34.191Z,5.50
2019-04-28T11:42:04.745Z,3.90
2019-04-28T11:44:34.966Z,4.10
2019-04-28T11:47:05.595Z,5.33
2019-04-28T11:49:36.035Z,5.23
2019-04-28T11:52:06.661Z,4.50
2019-04-28T11:54:36.861Z,2.57
2019-04-28T11:57:06.999Z,2.53
2019-04-28T11:59:37.129Z,2.50
2019-04-28T12:02:07.395Z,5.13
2019-04-28T12:04:37.504Z,3.40
2019-04-28T12:07:07.641Z,3.10
2019-04-28T12:09:44.740Z,3.10
2019-04-28T12:12:20.150Z,2.20
2019-04-28T12:14:55.749Z,3.40
2019-04-28T12:17:35.261Z,2.20
2019-04-28T12:20:10.697Z,2.10
2019-04-28T12:22:40.338Z,2.27
2019-04-28T12:25:10.666Z,2.80
2019-04-28T12:27:40.966Z,7.13
2019-04-28T12:30:11.926Z,3.43
2019-04-28T12:32:42.353Z,2.50
2019-04-28T12:35:12.805Z,4.03
2019-04-28T12:37:43.250Z,2.43
2019-04-28T12:40:13.842Z,4.87
2019-04-28T12:42:44.342Z,1.80
2019-04-28T12:45:14.889Z,1.20
2019-04-28T12:47:45.218Z,1.67
2019-04-28T12:50:20.408Z,3.83
2019-04-28T12:52:50.679Z,1.70
2019-04-28T12:55:21.243Z,2.07
2019-04-28T12:57:51.847Z,2.57
2019-04-28T13:01:28.177Z,2.90
2019-04-28T13:04:05.602Z,1.87
2019-04-28T13:06:36.131Z,1.60
2019-04-28T13:09:07.434Z,2.53
2019-04-28T13:11:37.894Z,2.30
2019-04-28T13:14:08.409Z,2.10
2019-04-28T13:16:38.880Z,2.27
2019-04-28T13:19:09.357Z,2.07
2019-04-28T13:21:39.869Z,1.20
2019-04-28T13:24:10.314Z,2.03
2019-04-28T13:26:40.808Z,1.20
2019-04-28T13:29:11.185Z,2.00
2019-04-28T13:31:42.150Z,1.30
2019-04-28T13:34:12.857Z,1.40
2019-04-28T13:36:43.741Z,2.97
2019-04-28T13:39:17.206Z,3.00
2019-04-28T13:41:47.681Z,1.00
2019-04-28T13:44:22.166Z,1.73
2019-04-28T13:46:52.334Z,3.17
2019-04-28T13:49:22.800Z,1.63
2019-04-28T13:51:53.227Z,3.10
2019-04-28T13:54:23.780Z,1.57
2019-04-28T13:56:54.234Z,1.30
2019-04-28T13:59:24.686Z,4.53
2019-04-28T14:02:00.156Z,2.10
2019-04-28T14:04:37.342Z,1.63
2019-04-28T14:07:08.370Z,2.00
2019-04-28T14:09:38.694Z,2.30
2019-04-28T14:12:09.144Z,1.70
2019-04-28T14:14:39.578Z,3.70
2019-04-28T14:17:10.042Z,3.57
2019-04-28T14:19:40.355Z,2.43
2019-04-28T14:22:10.775Z,3.47
2019-04-28T14:24:41.167Z,7.43
2019-04-28T14:27:11.485Z,3.83
2019-04-28T14:29:41.985Z,2.30
2019-04-28T14:32:12.655Z,1.77
2019-04-28T14:34:43.830Z,2.57
2019-04-28T14:37:14.409Z,1.97
2019-04-28T14:39:44.851Z,2.07
2019-04-28T14:42:15.322Z,1.50
2019-04-28T14:44:45.802Z,3.00
2019-04-28T14:47:16.180Z,2.97
2019-04-28T14:49:46.641Z,4.13
2019-04-28T14:52:17.128Z,5.03
2019-04-28T14:54:47.442Z,3.80
2019-04-28T14:57:17.816Z,4.80
2019-04-28T14:59:47.520Z,3.63
2019-04-28T15:02:27.778Z,3.40
2019-04-28T15:07:05.509Z,3.30
2019-04-28T15:09:40.917Z,4.07
2019-04-28T15:12:11.184Z,2.67
2019-04-28T15:14:41.397Z,2.50
2019-04-28T15:17:11.877Z,2.87
2019-04-28T15:19:42.478Z,2.50
2019-04-28T15:22:13.057Z,2.87
2019-04-28T15:24:43.384Z,3.27
2019-04-28T15:27:13.802Z,3.07
2019-04-28T15:29:44.056Z,3.90
2019-04-28T15:32:14.975Z,4.80
2019-04-28T15:34:45.366Z,5.67
2019-04-28T15:37:15.813Z,5.23
2019-04-28T15:39:46.202Z,4.90
2019-04-28T15:42:16.705Z,6.57
2019-04-28T15:44:47.322Z,4.93
2019-04-28T15:47:17.734Z,4.87
2019-04-28T15:49:48.114Z,5.00
2019-04-28T15:52:17.897Z,5.03
2019-04-28T15:54:48.230Z,6.17
2019-04-28T15:57:18.732Z,7.33
2019-04-28T15:59:49.234Z,6.00
2019-04-28T16:02:18.985Z,7.00
2019-04-28T16:04:49.573Z,7.67
2019-04-28T16:07:25.098Z,7.53
2019-04-28T16:09:50.490Z,9.27
2019-04-28T16:12:21.194Z,7.70
2019-04-28T16:14:51.913Z,8.23
2019-04-28T16:17:22.162Z,7.63
2019-04-28T16:19:52.587Z,7.90
2019-04-28T16:22:23.146Z,8.37
2019-04-28T16:24:53.554Z,7.77
2019-04-28T16:27:23.870Z,9.23
2019-04-28T16:29:54.393Z,7.77
2019-04-28T16:32:25.065Z,9.30
2019-04-28T16:34:55.561Z,8.53
2019-04-28T16:37:38.139Z,8.10
2019-04-28T16:39:56.454Z,7.80
2019-04-28T16:42:29.377Z,8.17
2019-04-28T16:45:01.197Z,8.87
2019-04-28T16:47:31.475Z,7.70
2019-04-28T16:50:01.920Z,8.23
2019-04-28T16:52:32.305Z,8.77
2019-04-28T16:55:07.678Z,8.60
2019-04-28T16:57:42.706Z,12.43
2019-04-28T17:00:17.418Z,9.60
2019-04-28T17:02:50.497Z,9.50
2019-04-28T17:05:21.048Z,9.57
2019-04-28T17:07:53.210Z,8.57
2019-04-28T17:10:22.005Z,9.27
2019-04-28T17:12:52.322Z,9.57
2019-04-28T17:15:22.635Z,8.23
2019-04-28T17:17:52.937Z,8.50
2019-04-28T17:20:23.545Z,10.93
2019-04-28T17:22:53.872Z,7.73
2019-04-28T17:25:24.377Z,9.03
2019-04-28T17:27:54.744Z,10.40
2019-04-28T17:30:25.121Z,6.80
2019-04-28T17:32:55.637Z,6.87
2019-04-28T17:35:26.073Z,7.27
2019-04-28T17:38:06.524Z,8.60
2019-04-28T17:40:28.076Z,8.40
2019-04-28T17:42:58.433Z,7.30
2019-04-28T17:45:28.941Z,7.17
2019-04-28T17:48:02.445Z,11.30
2019-04-28T17:50:32.913Z,8.20
2019-04-28T17:53:03.337Z,8.17
2019-04-28T17:55:33.715Z,7.93
2019-04-28T17:58:04.036Z,7.30
2019-04-28T18:00:39.562Z,8.43
2019-04-28T18:03:14.170Z,9.23
2019-04-28T18:05:51.829Z,8.70
2019-04-28T18:08:21.609Z,10.13
2019-04-28T18:10:51.930Z,8.20
2019-04-28T18:13:22.503Z,7.93
2019-04-28T18:17:00.746Z,8.60
2019-04-28T18:19:31.365Z,10.93
2019-04-28T18:22:01.906Z,10.47
2019-04-28T18:24:32.202Z,11.37
2019-04-28T18:27:02.663Z,7.87
2019-04-28T18:29:32.924Z,10.87
2019-04-28T18:32:06.863Z,10.10
2019-04-28T18:34:47.863Z,8.43
2019-04-28T18:38:34.015Z,8.93
2019-04-28T18:41:01.049Z,9.70
2019-04-28T18:43:46.271Z,8.37
2019-04-28T18:46:18.441Z,7.90
2019-04-28T18:48:48.880Z,9.07
2019-04-28T18:51:19.298Z,9.93
2019-04-28T18:53:49.797Z,9.03
2019-04-28T18:56:20.273Z,7.57
2019-04-28T18:58:50.734Z,9.50
2019-04-28T19:02:24.162Z,7.43
2019-04-28T19:04:54.911Z,7.53
2019-04-28T19:07:31.172Z,10.27
2019-04-28T19:10:08.271Z,10.40
2019-04-28T19:12:46.897Z,9.23
2019-04-28T19:15:31.665Z,10.77
2019-04-28T19:18:05.992Z,9.97
2019-04-28T19:20:36.602Z,8.03
2019-04-28T19:23:07.216Z,8.37
2019-04-28T19:25:37.909Z,11.63
2019-04-28T19:28:08.392Z,7.13
2019-04-28T19:30:39.175Z,8.03
2019-04-28T19:33:09.769Z,8.37
2019-04-28T19:35:40.439Z,7.27
2019-04-28T19:38:10.644Z,8.27
2019-04-28T19:40:41.122Z,6.80
2019-04-28T19:43:11.528Z,8.57
2019-04-28T19:45:42.177Z,8.07
2019-04-28T19:48:12.836Z,7.10
2019-04-28T19:50:43.856Z,6.27
2019-04-28T19:53:14.384Z,7.17
2019-04-28T19:55:49.024Z,9.83
2019-04-28T19:58:24.878Z,6.27
2019-04-28T20:01:02.062Z,8.23
2019-04-28T20:03:32.729Z,8.43
2019-04-28T20:06:03.131Z,8.67
2019-04-28T20:08:33.765Z,8.53
2019-04-28T20:11:04.206Z,8.70
2019-04-28T20:13:34.684Z,8.23
2019-04-28T20:16:05.153Z,9.00
2019-04-28T20:18:35.569Z,10.90
2019-04-28T20:21:06.048Z,7.50
2019-04-28T20:23:36.617Z,7.73
2019-04-28T20:26:07.292Z,10.70
2019-04-28T20:28:37.765Z,8.90
2019-04-28T20:31:08.433Z,8.83
2019-04-28T20:33:38.943Z,8.40
2019-04-28T20:36:13.460Z,8.90
2019-04-28T20:38:44.106Z,7.57
2019-04-28T20:41:23.796Z,10.77
2019-04-28T20:43:55.399Z,10.40
2019-04-28T20:46:26.062Z,11.17
2019-04-28T20:48:56.760Z,11.83
2019-04-28T20:51:27.355Z,10.37
2019-04-28T20:53:57.071Z,11.37
2019-04-28T20:56:27.360Z,11.20
2019-04-28T20:58:57.890Z,11.67
2019-04-28T21:01:28.284Z,9.03
2019-04-28T21:03:58.704Z,11.83
2019-04-28T21:06:29.071Z,8.47
2019-04-28T21:08:59.374Z,9.13
2019-04-28T21:11:29.949Z,14.70
2019-04-28T21:14:00.688Z,10.90
2019-04-28T21:16:30.475Z,8.97
2019-04-28T21:19:00.672Z,8.50
2019-04-28T21:21:31.069Z,9.70
2019-04-28T21:24:01.578Z,8.00
2019-04-28T21:26:32.164Z,5.03
2019-04-28T21:29:02.758Z,6.37
2019-04-28T21:31:33.310Z,7.00
2019-04-28T21:34:03.927Z,6.40
2019-04-28T21:36:34.588Z,9.00
2019-04-28T21:39:06.524Z,8.37
2019-04-28T21:41:37.117Z,7.00
2019-04-28T21:44:17.508Z,6.57
2019-04-28T21:46:55.161Z,6.33
2019-04-28T21:49:31.565Z,6.17
2019-04-28T21:52:02.142Z,6.30
2019-04-28T21:54:32.733Z,7.37
2019-04-28T21:57:03.276Z,6.33
2019-04-28T21:59:34.005Z,7.40
2019-04-28T22:02:04.614Z,5.47
2019-04-28T22:04:35.134Z,6.63
2019-04-28T22:07:05.824Z,8.60
2019-04-28T22:09:36.325Z,11.00
2019-04-28T22:12:06.784Z,6.90
2019-04-28T22:14:36.547Z,8.07
2019-04-28T22:17:07.109Z,8.40
2019-04-28T22:19:37.434Z,8.43
2019-04-28T22:22:07.952Z,6.43
2019-04-28T22:24:42.759Z,6.20
2019-04-28T22:27:15.101Z,5.30
2019-04-28T22:29:45.446Z,8.33
2019-04-28T22:32:16.002Z,5.70
2019-04-28T22:34:46.469Z,5.43
2019-04-28T22:37:16.973Z,6.37
2019-04-28T22:39:47.399Z,7.27
2019-04-28T22:42:17.893Z,4.93
2019-04-28T22:44:48.412Z,6.13
2019-04-28T22:47:18.894Z,5.83
2019-04-28T22:49:49.389Z,5.30
2019-04-28T22:52:19.813Z,6.27
2019-04-28T22:55:20.650Z,4.40
2019-04-28T22:58:26.911Z,4.70
2019-04-28T23:01:02.811Z,4.70
2019-04-28T23:03:38.618Z,4.37
2019-04-28T23:06:10.583Z,7.50
2019-04-28T23:08:39.786Z,5.40
2019-04-28T23:11:10.293Z,4.97
2019-04-28T23:13:40.845Z,5.57
2019-04-28T23:16:11.493Z,6.43
2019-04-28T23:18:42.145Z,6.03
2019-04-28T23:21:16.825Z,6.23
2019-04-28T23:23:47.584Z,5.47
2019-04-28T23:26:18.269Z,8.77
2019-04-28T23:28:48.729Z,7.00
2019-04-28T23:31:19.249Z,8.17
2019-04-28T23:33:49.571Z,7.83
2019-04-28T23:36:19.999Z,9.73
2019-04-28T23:38:50.433Z,9.93
2019-04-28T23:41:59.154Z,8.67
2019-04-28T23:44:29.713Z,9.30
2019-04-28T23:47:00.617Z,11.27
2019-04-28T23:49:31.252Z,8.60
2019-04-28T23:52:06.693Z,6.50
2019-04-28T23:54:38.825Z,7.90
2019-04-28T23:57:09.308Z,9.57
2019-04-28T23:59:39.813Z,10.20
